M I D A S
Marine Information and Data Acquisition System
Tripno 2104 of the Zeeleeuw from 2011-05-17 06:26:39 to 2011-05-17 15:57:41
Back to CruiseResearch ActivitiesStationsMapUnderway DataData graphs

EquipmentUnitsComments
TimeDGPSUTC
LatitudeDGPSDM.mWGS84
LongitudeDGPSDM.mWGS84
SpeedMeteo Stationm/sRelative wind speed
DirectionMeteo StationdegRelative wind direction
TemperatureMeteo Stationdeg CelciusAir temperature
PressureMeteo StationPaAtmospheric pressure
HumidityMeteo Station%Relative humidity
Missing or incorrect values are displayed as -999
Metereological data collected by the RV Zeeleeuw from 2011-05-17 06:31:10 to 2011-05-17 15:59:54
                                                                                    Next 1000 lines
Time Latitude Longitude Speed Direction Temperature Pressure Humidity
2011-05-17 06:31:19 51°13.615 2°56.063 -999 33 12.8 102080 39
2011-05-17 06:31:24 51°13.616 2°56.061 -999 40 12.8 102080 39
2011-05-17 06:31:30 51°13.617 2°56.057 -999 23 12.8 102080 38
2011-05-17 06:31:34 51°13.617 2°56.055 -999 35 12.8 102080 38
2011-05-17 06:31:40 51°13.619 2°56.051 -999 23 12.8 102070 38
2011-05-17 06:31:46 51°13.62 2°56.047 -999 35 12.8 102070 38
2011-05-17 06:31:51 51°13.62 2°56.046 -999 24 12.8 102070 38
2011-05-17 06:31:58 51°13.62 2°56.047 -999 34 12.8 102070 38
2011-05-17 06:32:02 51°13.62 2°56.048 -999 23 12.8 102080 38
2011-05-17 06:32:08 51°13.62 2°56.049 -999 35 12.8 102080 38
2011-05-17 06:32:13 51°13.62 2°56.05 -999 23 12.8 102070 38
2011-05-17 06:32:19 51°13.62 2°56.051 -999 35 12.8 102070 38
2011-05-17 06:32:23 51°13.62 2°56.052 -999 23 12.8 102080 39
2011-05-17 06:32:28 51°13.62 2°56.053 -999 34 12.8 102080 39
2011-05-17 06:32:33 51°13.62 2°56.054 -999 40 12.8 102080 39
2011-05-17 06:32:38 51°13.62 2°56.055 -999 33 12.8 102080 39
2011-05-17 06:32:43 51°13.62 2°56.056 -999 40 12.8 102080 39
2011-05-17 06:32:48 51°13.62 2°56.057 -999 35 12.8 102080 39
2011-05-17 06:32:53 51°13.62 2°56.058 -999 23 12.8 102080 38
2011-05-17 06:32:58 51°13.62 2°56.058 -999 37 12.8 102080 38
2011-05-17 06:33:02 51°13.619 2°56.059 -999 41 12.8 102080 37
2011-05-17 06:33:08 51°13.619 2°56.06 -999 35 12.8 102080 37
2011-05-17 06:33:13 51°13.619 2°56.06 -999 44 12.8 102080 38
2011-05-17 06:33:18 51°13.619 2°56.061 -999 35 12.8 102080 38
2011-05-17 06:33:23 51°13.619 2°56.062 -999 43 12.7 102080 38
2011-05-17 06:33:28 51°13.618 2°56.062 -999 44 12.7 102080 38
2011-05-17 06:33:32 51°13.618 2°56.062 -999 42 12.8 102080 38
2011-05-17 06:33:37 51°13.617 2°56.063 -999 35 12.8 102080 38
2011-05-17 06:33:42 51°13.617 2°56.064 -999 24 12.8 102080 38
2011-05-17 06:33:47 51°13.617 2°56.064 -999 54 12.8 102080 38
2011-05-17 06:33:52 51°13.616 2°56.065 -999 23 12.8 102080 38
2011-05-17 06:33:57 51°13.616 2°56.066 -999 35 12.8 102080 38
2011-05-17 06:34:02 51°13.616 2°56.066 -999 23 12.8 102070 38
2011-05-17 06:34:07 51°13.615 2°56.067 -999 35 12.8 102070 38
2011-05-17 06:34:12 51°13.615 2°56.067 -999 23 12.8 102080 38
2011-05-17 06:34:16 51°13.615 2°56.068 -999 43 12.8 102080 38
2011-05-17 06:34:21 51°13.615 2°56.068 -999 23 12.8 102080 39
2011-05-17 06:34:26 51°13.614 2°56.069 -999 35 12.8 102080 39
2011-05-17 06:34:31 51°13.614 2°56.07 -999 23 12.8 102080 38
2011-05-17 06:34:36 51°13.615 2°56.07 -999 35 12.8 102080 38
2011-05-17 06:34:41 51°13.615 2°56.07 -999 23 12.8 102070 39
2011-05-17 06:34:46 51°13.615 2°56.07 -999 35 12.8 102070 39
2011-05-17 06:34:50 51°13.615 2°56.07 -999 23 12.8 102080 38
2011-05-17 06:34:55 51°13.614 2°56.07 -999 34 12.8 102080 38
2011-05-17 06:35:00 51°13.614 2°56.07 -999 44 12.8 102080 38
2011-05-17 06:35:05 51°13.614 2°56.07 -999 35 12.8 102080 38
2011-05-17 06:35:10 51°13.614 2°56.07 -999 40 12.8 102080 38
2011-05-17 06:35:15 51°13.614 2°56.07 -999 35 12.8 102080 38
2011-05-17 06:35:20 51°13.614 2°56.07 -999 23 12.8 102090 38
2011-05-17 06:35:24 51°13.614 2°56.07 -999 35 12.8 102090 38
2011-05-17 06:35:28 51°13.614 2°56.07 -999 43 12.8 102080 38
2011-05-17 06:35:34 51°13.614 2°56.07 -999 35 12.8 102080 38
2011-05-17 06:35:40 51°13.614 2°56.07 -999 23 12.7 102080 37
2011-05-17 06:35:44 51°13.614 2°56.07 -999 54 12.7 102080 37
2011-05-17 06:35:50 51°13.614 2°56.07 -999 23 12.7 102080 38
2011-05-17 06:35:55 51°13.614 2°56.07 -999 39 12.7 102080 38
2011-05-17 06:35:59 51°13.614 2°56.07 -999 40 12.7 102080 38
2011-05-17 06:36:04 51°13.614 2°56.07 -999 35 12.7 102080 38
2011-05-17 06:36:09 51°13.613 2°56.069 -999 23 12.7 102090 38
2011-05-17 06:36:15 51°13.613 2°56.069 -999 35 12.7 102090 38
2011-05-17 06:36:20 51°13.613 2°56.069 -999 23 12.7 102080 38
2011-05-17 06:36:24 51°13.613 2°56.069 -999 35 12.7 102080 38
2011-05-17 06:36:29 51°13.613 2°56.069 -999 23 12.7 102080 38
2011-05-17 06:36:35 51°13.613 2°56.069 -999 34 12.7 102080 38
2011-05-17 06:36:40 51°13.614 2°56.067 -999 23 12.8 102080 38
2011-05-17 06:36:45 51°13.614 2°56.064 -999 35 12.8 102080 38
2011-05-17 06:36:50 51°13.615 2°56.06 -999 29 12.8 102080 39
2011-05-17 06:36:55 51°13.616 2°56.055 3.8 32 12.8 102080 39
2011-05-17 06:37:01 51°13.618 2°56.047 2.8 28 12.8 102080 39
2011-05-17 06:37:06 51°13.619 2°56.04 5.3 33 12.8 102080 39
2011-05-17 06:37:12 51°13.622 2°56.03 5.5 28 12.8 102080 38
2011-05-17 06:37:17 51°13.625 2°56.022 4.6 32 12.8 102080 38
2011-05-17 06:37:23 51°13.628 2°56.01 4.3 27 12.9 102080 39
2011-05-17 06:37:28 51°13.63 2°56.001 3.9 32 12.9 102080 39
2011-05-17 06:37:33 51°13.633 2°55.992 5.1 26 12.9 102080 38
2011-05-17 06:37:38 51°13.635 2°55.983 2.9 32 12.9 102080 38
2011-05-17 06:37:43 51°13.637 2°55.975 2.7 24 12.9 102080 39
2011-05-17 06:37:48 51°13.639 2°55.967 7.3 39 12.9 102080 39
2011-05-17 06:37:53 51°13.64 2°55.961 6.6 43 12.9 102080 40
2011-05-17 06:37:58 51°13.641 2°55.956 5 39 12.9 102080 40
2011-05-17 06:38:03 51°13.642 2°55.955 3.6 21 13 102080 40
2011-05-17 06:38:08 51°13.643 2°55.952 4.8 35 13 102080 40
2011-05-17 06:38:13 51°13.644 2°55.949 4.4 45 12.9 102090 37
2011-05-17 06:38:18 51°13.645 2°55.944 4.1 37 12.9 102090 37
2011-05-17 06:38:22 51°13.646 2°55.939 3.9 22 12.9 102080 36
2011-05-17 06:38:27 51°13.648 2°55.934 5.9 36 12.9 102080 36
2011-05-17 06:38:33 51°13.649 2°55.928 6.2 19 12.9 102080 38
2011-05-17 06:38:38 51°13.65 2°55.925 4.6 34 12.9 102080 38
2011-05-17 06:38:43 51°13.651 2°55.923 4.7 20 12.9 102080 38
2011-05-17 06:38:48 51°13.652 2°55.92 5.3 41 12.9 102080 38
2011-05-17 06:38:53 51°13.653 2°55.918 4.8 44 12.9 102080 39
2011-05-17 06:38:58 51°13.653 2°55.916 3.7 32 12.9 102080 39
2011-05-17 06:39:03 51°13.654 2°55.914 3 21 12.9 102080 37
2011-05-17 06:39:08 51°13.655 2°55.911 0.4 36 12.9 102080 37
2011-05-17 06:39:13 51°13.657 2°55.907 0.2 25 12.9 102080 39
2011-05-17 06:39:18 51°13.658 2°55.902 2.7 49 12.9 102080 39
2011-05-17 06:39:22 51°13.66 2°55.898 5.2 22 12.9 102080 38
2011-05-17 06:39:28 51°13.662 2°55.891 4.5 40 12.9 102080 38
2011-05-17 06:39:33 51°13.664 2°55.886 8.1 25 12.9 102080 37
2011-05-17 06:39:38 51°13.666 2°55.881 5.8 44 12.9 102080 37
2011-05-17 06:39:43 51°13.668 2°55.875 4.4 45 12.9 102080 38
2011-05-17 06:39:48 51°13.67 2°55.87 7.6 36 12.9 102080 38
2011-05-17 06:39:53 51°13.672 2°55.865 5.4 43 12.9 102080 39
2011-05-17 06:39:58 51°13.675 2°55.86 4.9 41 12.9 102080 39
2011-05-17 06:40:03 51°13.677 2°55.855 7.1 44 12.9 102080 38
2011-05-17 06:40:08 51°13.679 2°55.851 6.7 36 12.9 102080 38
2011-05-17 06:40:13 51°13.681 2°55.846 7.2 24 12.9 102080 39
2011-05-17 06:40:18 51°13.683 2°55.841 4.1 32 12.9 102080 39
2011-05-17 06:40:23 51°13.685 2°55.836 8 22 12.9 102080 37
2011-05-17 06:40:28 51°13.687 2°55.831 6.4 30 12.9 102080 37
2011-05-17 06:40:33 51°13.689 2°55.826 8.3 42 12.9 102080 37
2011-05-17 06:40:38 51°13.691 2°55.821 4.8 41 12.9 102080 37
2011-05-17 06:40:43 51°13.693 2°55.815 6.2 41 12.9 102080 38
2011-05-17 06:40:48 51°13.695 2°55.81 7.2 32 12.9 102080 38
2011-05-17 06:40:53 51°13.697 2°55.804 6.4 23 12.9 102080 38
2011-05-17 06:40:58 51°13.698 2°55.799 7.5 35 12.9 102080 38
2011-05-17 06:41:03 51°13.7 2°55.793 4.3 27 12.9 102070 36
2011-05-17 06:41:08 51°13.701 2°55.787 8 33 12.9 102070 36
2011-05-17 06:41:13 51°13.703 2°55.781 9.3 21 12.9 102080 37
2011-05-17 06:41:18 51°13.704 2°55.775 5.6 31 12.9 102080 37
2011-05-17 06:41:23 51°13.705 2°55.77 5.7 25 12.9 102070 39
2011-05-17 06:41:28 51°13.706 2°55.764 6.6 36 12.9 102070 39
2011-05-17 06:41:33 51°13.707 2°55.759 7.6 27 12.8 102080 38
2011-05-17 06:41:38 51°13.707 2°55.754 6.2 31 12.8 102080 38
2011-05-17 06:41:43 51°13.708 2°55.75 7.2 25 12.8 102080 39
2011-05-17 06:41:48 51°13.708 2°55.747 4.1 35 12.8 102080 39
2011-05-17 06:41:53 51°13.709 2°55.745 3.4 26 12.8 102080 38
2011-05-17 06:41:58 51°13.709 2°55.743 5.4 32 12.8 102080 38
2011-05-17 06:42:03 51°13.71 2°55.742 8.3 27 12.8 102080 39
2011-05-17 06:42:07 51°13.71 2°55.742 3.1 36 12.8 102080 39
2011-05-17 06:42:12 51°13.71 2°55.742 3.2 19 12.8 102080 38
2011-05-17 06:42:17 51°13.711 2°55.742 2.8 31 12.8 102080 38
2011-05-17 06:42:22 51°13.712 2°55.743 2 20 12.8 102090 38
2011-05-17 06:42:27 51°13.713 2°55.744 1.1 37 12.8 102090 38
2011-05-17 06:42:32 51°13.713 2°55.745 0.8 22 12.8 102080 37
2011-05-17 06:42:37 51°13.714 2°55.745 3.9 31 12.8 102080 37
2011-05-17 06:42:41 51°13.714 2°55.745 4.6 19 12.8 102090 38
2011-05-17 06:42:46 51°13.714 2°55.744 6.1 32 12.8 102090 38
2011-05-17 06:42:51 51°13.713 2°55.742 6.6 22 12.8 102090 39
2011-05-17 06:42:56 51°13.711 2°55.739 6.3 30 12.8 102090 39
2011-05-17 06:43:01 51°13.71 2°55.735 5.5 26 12.8 102090 39
2011-05-17 06:43:06 51°13.708 2°55.731 7.1 36 12.8 102090 39
2011-05-17 06:43:11 51°13.707 2°55.729 7.7 26 12.8 102090 39
2011-05-17 06:43:18 51°13.707 2°55.73 4.7 37 12.8 102090 39
2011-05-17 06:43:24 51°13.709 2°55.732 4.1 266 12.8 102110 38
2011-05-17 06:43:28 51°13.71 2°55.733 4.4 261 12.8 102110 38
2011-05-17 06:43:33 51°13.712 2°55.734 2.8 264 12.8 102090 39
2011-05-17 06:43:39 51°13.714 2°55.736 2.6 270 12.8 102090 39
2011-05-17 06:43:43 51°13.715 2°55.736 2 251 12.8 102090 36
2011-05-17 06:43:48 51°13.715 2°55.737 3.9 256 12.8 102090 36
2011-05-17 06:43:53 51°13.714 2°55.737 4.4 259 12.8 102090 37
2011-05-17 06:43:58 51°13.713 2°55.736 5 39 12.8 102090 37
2011-05-17 06:44:03 51°13.71 2°55.736 3.7 28 12.8 102090 41
2011-05-17 06:44:08 51°13.707 2°55.735 4.3 257 12.8 102090 41
2011-05-17 06:44:12 51°13.704 2°55.735 4.3 269 12.8 102090 38
2011-05-17 06:44:18 51°13.7 2°55.735 4.5 260 12.8 102090 38
2011-05-17 06:44:23 51°13.697 2°55.734 5.4 21 12.8 102090 39
2011-05-17 06:44:28 51°13.694 2°55.734 5.3 266 12.8 102090 39
2011-05-17 06:44:33 51°13.692 2°55.734 5.4 269 12.8 102100 38
2011-05-17 06:44:38 51°13.692 2°55.734 5.3 260 12.8 102100 38
2011-05-17 06:44:43 51°13.692 2°55.734 2.6 267 12.8 102090 37
2011-05-17 06:44:48 51°13.695 2°55.734 2.8 263 12.8 102090 37
2011-05-17 06:44:53 51°13.698 2°55.733 3.3 19 12.8 102100 39
2011-05-17 06:44:58 51°13.702 2°55.731 3.4 262 12.8 102100 39
2011-05-17 06:45:03 51°13.706 2°55.73 2.9 256 12.8 102090 38
2011-05-17 06:45:08 51°13.71 2°55.727 2 243 12.8 102090 38
2011-05-17 06:45:13 51°13.715 2°55.724 2.9 21 12.8 102090 38
2011-05-17 06:45:18 51°13.72 2°55.72 6.2 242 12.8 102090 38
2011-05-17 06:45:23 51°13.726 2°55.716 7.1 318 12.8 102090 40
2011-05-17 06:45:28 51°13.732 2°55.711 6.6 238 12.8 102090 40
2011-05-17 06:45:32 51°13.737 2°55.707 5.9 25 12.8 102090 38
2011-05-17 06:45:37 51°13.743 2°55.702 5.8 247 12.8 102090 38
2011-05-17 06:45:42 51°13.75 2°55.697 6.3 20 12.8 102090 39
2011-05-17 06:45:47 51°13.758 2°55.691 2.1 30 12.8 102090 39
2011-05-17 06:45:52 51°13.765 2°55.684 3.5 23 12.8 102080 39
2011-05-17 06:45:57 51°13.773 2°55.678 5.2 324 12.8 102080 39
2011-05-17 06:46:02 51°13.781 2°55.671 7.2 324 12.8 102080 38
2011-05-17 06:46:07 51°13.79 2°55.664 4 323 12.8 102080 38
2011-05-17 06:46:12 51°13.799 2°55.657 3.7 323 12.8 102090 38
2011-05-17 06:46:16 51°13.806 2°55.651 4 31 12.8 102090 38
2011-05-17 06:46:21 51°13.815 2°55.645 2.7 25 12.8 102080 37
2011-05-17 06:46:26 51°13.824 2°55.638 5.5 36 12.8 102080 37
2011-05-17 06:46:32 51°13.836 2°55.629 5.1 319 12.8 102090 39
2011-05-17 06:46:37 51°13.846 2°55.623 4.7 38 12.8 102090 39
2011-05-17 06:46:41 51°13.853 2°55.617 5 315 12.8 102090 38
2011-05-17 06:46:47 51°13.865 2°55.609 7.2 320 12.8 102090 38
2011-05-17 06:46:52 51°13.875 2°55.602 7.9 324 12.8 102090 39
2011-05-17 06:46:56 51°13.883 2°55.597 9.1 37 12.8 102090 39
2011-05-17 06:47:01 51°13.893 2°55.59 6.9 26 12.8 102090 39
2011-05-17 06:47:06 51°13.903 2°55.582 7 317 12.8 102090 39
2011-05-17 06:47:11 51°13.913 2°55.575 5.3 319 12.8 102080 38
2011-05-17 06:47:16 51°13.923 2°55.567 5.6 36 12.8 102080 38
2011-05-17 06:47:21 51°13.933 2°55.56 4.3 18 12.8 102080 39
2011-05-17 06:47:25 51°13.941 2°55.554 4.4 237 12.8 102080 39
2011-05-17 06:47:30 51°13.951 2°55.547 7 26 12.8 102080 39
2011-05-17 06:47:35 51°13.961 2°55.539 6.5 321 12.8 102080 39
2011-05-17 06:47:41 51°13.974 2°55.531 5.7 26 12.8 102080 39
2011-05-17 06:47:46 51°13.984 2°55.523 5.3 236 12.8 102080 39
2011-05-17 06:47:51 51°13.994 2°55.516 8.1 320 12.8 102090 39
2011-05-17 06:47:56 51°14.004 2°55.509 6.5 320 12.8 102090 39
2011-05-17 06:48:02 51°14.017 2°55.5 5.7 26 12.8 102090 39
2011-05-17 06:48:06 51°14.025 2°55.495 10.1 235 12.8 102090 39
2011-05-17 06:48:11 51°14.035 2°55.488 9.1 28 12.8 102090 39
2011-05-17 06:48:16 51°14.045 2°55.48 9.1 243 12.8 102090 39
2011-05-17 06:48:22 51°14.057 2°55.472 5.8 281 12.8 102090 39
2011-05-17 06:48:27 51°14.067 2°55.464 5.3 327 12.8 102090 39
2011-05-17 06:48:33 51°14.079 2°55.455 4.5 27 12.7 102080 39
2011-05-17 06:48:38 51°14.089 2°55.448 6.1 323 12.7 102080 39
2011-05-17 06:48:43 51°14.099 2°55.441 9 281 12.7 102080 38
2011-05-17 06:48:48 51°14.109 2°55.434 6.7 319 12.7 102080 38
2011-05-17 06:48:53 51°14.119 2°55.426 5.4 318 12.8 102070 38
2011-05-17 06:48:58 51°14.128 2°55.419 6.6 321 12.8 102070 38
2011-05-17 06:49:03 51°14.138 2°55.411 8 319 12.8 102080 37
2011-05-17 06:49:08 51°14.148 2°55.403 4.4 38 12.8 102080 37
2011-05-17 06:49:13 51°14.158 2°55.396 9.3 24 12.8 102080 38
2011-05-17 06:49:18 51°14.168 2°55.387 8.9 33 12.8 102080 38
2011-05-17 06:49:22 51°14.177 2°55.38 4.2 24 12.8 102080 38
2011-05-17 06:49:29 51°14.192 2°55.367 7.3 37 12.8 102080 38
2011-05-17 06:49:34 51°14.203 2°55.358 7 25 12.8 102070 38
2011-05-17 06:49:39 51°14.215 2°55.347 5.3 36 12.8 102070 38
2011-05-17 06:49:43 51°14.224 2°55.339 11 24 12.8 102070 38
2011-05-17 06:49:47 51°14.233 2°55.331 3.9 33 12.8 102070 38
2011-05-17 06:49:54 51°14.249 2°55.316 4.2 23 12.8 102080 39
2011-05-17 06:49:58 51°14.259 2°55.307 5.2 38 12.8 102080 39
2011-05-17 06:50:03 51°14.27 2°55.296 8 22 12.8 102080 39
2011-05-17 06:50:08 51°14.282 2°55.284 11.3 34 12.8 102080 39
2011-05-17 06:50:13 51°14.294 2°55.272 5.4 26 12.8 102070 39
2011-05-17 06:50:18 51°14.305 2°55.261 5.3 234 12.8 102070 39
2011-05-17 06:50:23 51°14.317 2°55.248 10.7 24 12.8 102070 39
2011-05-17 06:50:28 51°14.33 2°55.237 11.4 33 12.8 102070 39
2011-05-17 06:50:33 51°14.342 2°55.224 9.1 23 12.8 102050 39
2011-05-17 06:50:38 51°14.354 2°55.212 11.1 238 12.8 102050 39
2011-05-17 06:50:43 51°14.366 2°55.2 11.6 281 12.8 102060 38
2011-05-17 06:50:48 51°14.378 2°55.187 12.6 240 12.8 102060 38
2011-05-17 06:50:53 51°14.391 2°55.175 5.7 24 12.8 102060 39
2011-05-17 06:50:58 51°14.404 2°55.164 4.9 33 12.8 102060 39
2011-05-17 06:51:03 51°14.416 2°55.152 11.4 25 12.7 102040 39
2011-05-17 06:51:08 51°14.43 2°55.14 5.6 234 12.7 102040 39
2011-05-17 06:51:13 51°14.442 2°55.128 5.5 24 12.7 102060 38
2011-05-17 06:51:18 51°14.455 2°55.115 6.1 238 12.7 102060 38
2011-05-17 06:51:23 51°14.468 2°55.103 6.2 26 12.7 102040 39
2011-05-17 06:51:28 51°14.481 2°55.09 6.3 236 12.7 102040 39
2011-05-17 06:51:33 51°14.493 2°55.077 14.6 279 12.8 102040 39
2011-05-17 06:51:38 51°14.506 2°55.063 12.2 238 12.8 102040 39
2011-05-17 06:51:43 51°14.519 2°55.049 7 25 12.8 102040 38
2011-05-17 06:51:48 51°14.531 2°55.033 6.8 237 12.8 102040 38
2011-05-17 06:51:53 51°14.542 2°55.015 6.1 280 12.8 102040 39
2011-05-17 06:51:58 51°14.553 2°54.996 6.3 33 12.8 102040 39
2011-05-17 06:52:03 51°14.564 2°54.978 12.6 21 12.7 102030 39
2011-05-17 06:52:08 51°14.577 2°54.961 7 31 12.7 102030 39
2011-05-17 06:52:13 51°14.589 2°54.945 6.5 24 12.7 102030 38
2011-05-17 06:52:18 51°14.602 2°54.928 6.1 240 12.7 102030 38
2011-05-17 06:52:23 51°14.615 2°54.912 12.2 25 12.7 102030 39
2011-05-17 06:52:28 51°14.629 2°54.897 14.4 236 12.7 102030 39
2011-05-17 06:52:32 51°14.639 2°54.884 13.5 20 12.8 102030 39
2011-05-17 06:52:37 51°14.653 2°54.869 12.3 238 12.8 102030 39
2011-05-17 06:52:42 51°14.667 2°54.853 13.4 283 12.7 102030 39
2011-05-17 06:52:47 51°14.68 2°54.837 6.6 238 12.7 102030 39
2011-05-17 06:52:52 51°14.694 2°54.821 6.4 23 12.8 102030 39
2011-05-17 06:52:56 51°14.705 2°54.809 12.1 35 12.8 102030 39
2011-05-17 06:53:02 51°14.721 2°54.788 11.9 21 12.7 102030 39
2011-05-17 06:53:07 51°14.735 2°54.771 6.6 36 12.7 102030 39
2011-05-17 06:53:12 51°14.748 2°54.753 5.8 21 12.7 102030 39
2011-05-17 06:53:16 51°14.759 2°54.739 6.2 33 12.7 102030 39
2011-05-17 06:53:21 51°14.773 2°54.721 6.6 23 12.7 102030 39
2011-05-17 06:53:26 51°14.786 2°54.703 6.9 31 12.7 102030 39
2011-05-17 06:53:31 51°14.799 2°54.686 6.1 282 12.7 102030 40
2011-05-17 06:53:36 51°14.813 2°54.669 6.3 31 12.7 102030 40
2011-05-17 06:53:41 51°14.827 2°54.653 6.2 23 12.8 102030 39
2011-05-17 06:53:45 51°14.838 2°54.639 12.5 236 12.8 102030 39
2011-05-17 06:53:51 51°14.855 2°54.62 6.2 22 12.7 102020 39
2011-05-17 06:53:56 51°14.869 2°54.605 12 238 12.7 102020 39
2011-05-17 06:54:01 51°14.884 2°54.589 12.3 26 12.7 102020 39
2011-05-17 06:54:05 51°14.895 2°54.576 6.2 238 12.7 102020 39
2011-05-17 06:54:11 51°14.912 2°54.558 12.3 19 12.7 102020 39
2011-05-17 06:54:16 51°14.927 2°54.543 13.5 238 12.7 102020 39
2011-05-17 06:54:21 51°14.94 2°54.527 11.7 25 12.7 102030 38
2011-05-17 06:54:25 51°14.952 2°54.515 6.6 237 12.7 102030 38
2011-05-17 06:54:30 51°14.966 2°54.498 6.2 24 12.7 102030 39
2011-05-17 06:54:35 51°14.98 2°54.483 6.7 237 12.7 102030 39
2011-05-17 06:54:40 51°14.994 2°54.466 6.5 26 12.7 102030 39
2011-05-17 06:54:45 51°15.007 2°54.45 12.1 235 12.7 102030 39
2011-05-17 06:54:49 51°15.018 2°54.436 6.2 22 12.7 102040 40
2011-05-17 06:54:55 51°15.034 2°54.414 14.1 34 12.7 102040 40
2011-05-17 06:55:00 51°15.046 2°54.396 6.9 24 12.7 102050 39
2011-05-17 06:55:05 51°15.059 2°54.377 12.9 234 12.7 102050 39
2011-05-17 06:55:09 51°15.069 2°54.361 7.2 25 12.7 102040 39
2011-05-17 06:55:14 51°15.081 2°54.342 13.9 36 12.7 102040 39
2011-05-17 06:55:20 51°15.096 2°54.319 6.4 282 12.7 102030 39
2011-05-17 06:55:25 51°15.108 2°54.3 6.2 35 12.7 102030 39
2011-05-17 06:55:30 51°15.12 2°54.28 6.6 26 12.7 102030 40
2011-05-17 06:55:35 51°15.133 2°54.261 6.5 36 12.7 102030 40
2011-05-17 06:55:40 51°15.146 2°54.242 6.4 24 12.7 102000 39
2011-05-17 06:55:45 51°15.158 2°54.224 6.5 35 12.7 102000 39
2011-05-17 06:55:49 51°15.168 2°54.209 7.1 22 12.7 102020 40
2011-05-17 06:55:55 51°15.183 2°54.186 6.7 37 12.7 102020 40
2011-05-17 06:56:00 51°15.196 2°54.169 6.8 20 12.7 102010 39
2011-05-17 06:56:05 51°15.209 2°54.151 6.5 36 12.7 102010 39
2011-05-17 06:56:09 51°15.22 2°54.137 7 283 12.7 102020 40
2011-05-17 06:56:15 51°15.236 2°54.117 6.8 35 12.7 102020 40
2011-05-17 06:56:20 51°15.249 2°54.099 6.7 22 12.7 102020 39
2011-05-17 06:56:25 51°15.262 2°54.083 12 34 12.7 102020 39
2011-05-17 06:56:30 51°15.276 2°54.066 6.4 24 12.7 102020 39
2011-05-17 06:56:35 51°15.289 2°54.049 6.9 235 12.7 102020 39
2011-05-17 06:56:40 51°15.302 2°54.031 6.7 24 12.6 102020 39
2011-05-17 06:56:45 51°15.315 2°54.014 7.3 32 12.6 102020 39
2011-05-17 06:56:49 51°15.326 2°54 7.2 21 12.6 102030 38
2011-05-17 06:56:55 51°15.342 2°53.978 16 33 12.6 102030 38
2011-05-17 06:57:00 51°15.355 2°53.961 14.6 24 12.6 102020 38
2011-05-17 06:57:05 51°15.368 2°53.944 7.1 236 12.6 102020 38
2011-05-17 06:57:09 51°15.378 2°53.929 7.1 22 12.6 102020 39
2011-05-17 06:57:14 51°15.391 2°53.912 13.3 33 12.6 102020 39
2011-05-17 06:57:20 51°15.407 2°53.89 6.3 281 12.6 102020 39
2011-05-17 06:57:25 51°15.42 2°53.872 6.5 33 12.6 102020 39
2011-05-17 06:57:30 51°15.433 2°53.854 6.1 23 12.6 102020 39
2011-05-17 06:57:34 51°15.443 2°53.84 7.2 236 12.6 102020 39
2011-05-17 06:57:40 51°15.459 2°53.819 7.4 282 12.6 102020 39
2011-05-17 06:57:45 51°15.473 2°53.802 6.3 35 12.6 102020 39
2011-05-17 06:57:49 51°15.484 2°53.789 14.7 24 12.6 102030 40
2011-05-17 06:57:55 51°15.501 2°53.769 14 236 12.6 102030 40
2011-05-17 06:58:00 51°15.515 2°53.753 6.7 23 12.6 102020 40
2011-05-17 06:58:05 51°15.528 2°53.736 13.3 237 12.6 102020 40
2011-05-17 06:58:09 51°15.539 2°53.722 6.9 25 12.6 102030 39
2011-05-17 06:58:15 51°15.555 2°53.702 6.6 233 12.6 102030 39
2011-05-17 06:58:20 51°15.569 2°53.685 6.3 25 12.6 102010 39
2011-05-17 06:58:25 51°15.583 2°53.668 5.8 235 12.6 102010 39
2011-05-17 06:58:30 51°15.597 2°53.651 6 25 12.6 102030 39
2011-05-17 06:58:35 51°15.611 2°53.635 6.5 234 12.6 102030 39
2011-05-17 06:58:40 51°15.625 2°53.618 13.1 23 12.6 102030 39
2011-05-17 06:58:45 51°15.639 2°53.603 6.4 36 12.6 102030 39
2011-05-17 06:58:50 51°15.654 2°53.588 5.9 26 12.7 102030 39
2011-05-17 06:58:55 51°15.668 2°53.573 14.3 236 12.7 102030 39
2011-05-17 06:59:00 51°15.683 2°53.558 10.5 24 12.7 102020 40
2011-05-17 06:59:05 51°15.698 2°53.545 6.3 238 12.7 102020 40
2011-05-17 06:59:09 51°15.709 2°53.533 6.4 25 12.6 102030 39
2011-05-17 06:59:15 51°15.727 2°53.517 5.8 239 12.6 102030 39
2011-05-17 06:59:20 51°15.742 2°53.503 6.6 26 12.6 102030 39
2011-05-17 06:59:25 51°15.757 2°53.489 12.1 238 12.6 102030 39
2011-05-17 06:59:29 51°15.769 2°53.478 11.4 25 12.6 102020 40
2011-05-17 06:59:35 51°15.787 2°53.462 6.7 238 12.6 102020 40
2011-05-17 06:59:40 51°15.802 2°53.449 6.4 279 12.6 102030 38
2011-05-17 06:59:45 51°15.817 2°53.435 6.3 236 12.6 102030 38
2011-05-17 06:59:49 51°15.829 2°53.424 13.2 20 12.6 102020 40
2011-05-17 06:59:54 51°15.844 2°53.41 6.7 235 12.6 102020 40
2011-05-17 07:00:00 51°15.861 2°53.394 7.1 24 12.6 102040 39
2011-05-17 07:00:05 51°15.876 2°53.38 6.7 236 12.6 102040 39
2011-05-17 07:00:09 51°15.888 2°53.369 13.2 23 12.6 102030 39
2011-05-17 07:00:15 51°15.906 2°53.353 6.6 238 12.6 102030 39
2011-05-17 07:00:20 51°15.92 2°53.339 6.8 28 12.6 102020 40
2011-05-17 07:00:25 51°15.935 2°53.325 6 235 12.6 102020 40
2011-05-17 07:00:29 51°15.947 2°53.314 6.1 24 12.6 102020 39
2011-05-17 07:00:35 51°15.964 2°53.297 13.2 239 12.6 102020 39
2011-05-17 07:00:40 51°15.979 2°53.283 5.7 24 12.6 102030 39
2011-05-17 07:00:45 51°15.993 2°53.27 11.9 240 12.6 102030 39
2011-05-17 07:00:49 51°16.005 2°53.258 6.5 283 12.6 102030 40
2011-05-17 07:00:55 51°16.022 2°53.241 6.7 238 12.6 102030 40
2011-05-17 07:01:00 51°16.037 2°53.227 13.9 22 12.6 102020 39
2011-05-17 07:01:05 51°16.051 2°53.212 13.8 236 12.6 102020 39
2011-05-17 07:01:09 51°16.063 2°53.2 12.9 23 12.6 102040 39
2011-05-17 07:01:15 51°16.08 2°53.182 12.5 33 12.6 102040 39
2011-05-17 07:01:20 51°16.094 2°53.167 11.7 279 12.6 102040 40
2011-05-17 07:01:25 51°16.109 2°53.152 5.7 34 12.6 102040 40
2011-05-17 07:01:29 51°16.12 2°53.141 13.6 22 12.6 102030 39
2011-05-17 07:01:35 51°16.138 2°53.124 6.5 236 12.6 102030 39
2011-05-17 07:01:40 51°16.152 2°53.11 6.2 25 12.6 102030 39
2011-05-17 07:01:45 51°16.167 2°53.096 14.6 237 12.6 102030 39
2011-05-17 07:01:49 51°16.179 2°53.085 11.6 23 12.6 102030 40
2011-05-17 07:01:54 51°16.194 2°53.071 12.3 236 12.6 102030 40
2011-05-17 07:02:00 51°16.211 2°53.055 6.7 20 12.6 102030 40
2011-05-17 07:02:05 51°16.226 2°53.043 12.1 237 12.6 102030 40
2011-05-17 07:02:09 51°16.238 2°53.032 11.4 22 12.6 102030 40
2011-05-17 07:02:14 51°16.253 2°53.02 6.1 239 12.6 102030 40
2011-05-17 07:02:19 51°16.268 2°53.008 6.6 25 12.6 102040 38
2011-05-17 07:02:25 51°16.287 2°52.994 5.7 239 12.6 102040 38
2011-05-17 07:02:29 51°16.299 2°52.985 11.3 280 12.6 102030 39
2011-05-17 07:02:34 51°16.315 2°52.974 5.4 239 12.6 102030 39
2011-05-17 07:02:39 51°16.33 2°52.963 9.4 26 12.6 102030 39
2011-05-17 07:02:45 51°16.349 2°52.95 5 240 12.6 102030 39
2011-05-17 07:02:49 51°16.361 2°52.941 12.9 279 12.6 102030 39
2011-05-17 07:02:54 51°16.377 2°52.931 10 238 12.6 102030 39
2011-05-17 07:02:59 51°16.392 2°52.92 10.2 22 12.6 102040 40
2011-05-17 07:03:05 51°16.411 2°52.908 11.1 238 12.6 102040 40
2011-05-17 07:03:09 51°16.424 2°52.9 11.2 282 12.6 102040 40
2011-05-17 07:03:14 51°16.439 2°52.89 11.5 31 12.6 102040 40
2011-05-17 07:03:20 51°16.458 2°52.877 11.9 22 12.6 102030 40
2011-05-17 07:03:25 51°16.473 2°52.867 13.8 237 12.6 102030 40
2011-05-17 07:03:29 51°16.486 2°52.858 13 25 12.6 102050 40
2011-05-17 07:03:34 51°16.501 2°52.848 11.5 238 12.6 102050 40
2011-05-17 07:03:40 51°16.52 2°52.835 10.1 282 12.6 102030 40
2011-05-17 07:03:45 51°16.535 2°52.824 10.5 235 12.6 102030 40
2011-05-17 07:03:49 51°16.547 2°52.815 12.5 23 12.6 102030 39
2011-05-17 07:03:54 51°16.563 2°52.805 12.2 241 12.6 102030 39
2011-05-17 07:03:59 51°16.578 2°52.794 6 24 12.6 102020 39
2011-05-17 07:04:05 51°16.596 2°52.781 10.7 236 12.6 102020 39
2011-05-17 07:04:09 51°16.608 2°52.772 12.5 24 12.6 102040 40
2011-05-17 07:04:14 51°16.624 2°52.761 11.9 236 12.6 102040 40
2011-05-17 07:04:20 51°16.642 2°52.748 12.8 279 12.6 102030 39
2011-05-17 07:04:25 51°16.657 2°52.738 5.9 236 12.6 102030 39
2011-05-17 07:04:29 51°16.669 2°52.729 11.5 25 12.6 102040 39
2011-05-17 07:04:35 51°16.688 2°52.716 12.5 237 12.6 102040 39
2011-05-17 07:04:39 51°16.7 2°52.707 11.8 23 12.6 102030 40
2011-05-17 07:04:45 51°16.719 2°52.695 12.6 239 12.6 102030 40
2011-05-17 07:04:49 51°16.731 2°52.687 13.1 24 12.6 102030 40
2011-05-17 07:04:54 51°16.746 2°52.677 11.9 239 12.6 102030 40
2011-05-17 07:04:59 51°16.761 2°52.665 10.6 23 12.6 102040 37
2011-05-17 07:05:04 51°16.776 2°52.655 11 239 12.6 102040 37
2011-05-17 07:05:09 51°16.79 2°52.644 5.6 25 12.6 102040 39
2011-05-17 07:05:14 51°16.805 2°52.636 11.2 241 12.6 102040 39
2011-05-17 07:05:20 51°16.824 2°52.626 5.5 25 12.6 102030 40
2011-05-17 07:05:25 51°16.839 2°52.62 5.6 238 12.6 102030 40
2011-05-17 07:05:29 51°16.852 2°52.615 12.7 24 12.6 102040 40
2011-05-17 07:05:35 51°16.871 2°52.608 10.7 240 12.6 102040 40
2011-05-17 07:05:40 51°16.886 2°52.603 11.6 24 12.6 102040 39
2011-05-17 07:05:45 51°16.902 2°52.599 10.2 243 12.6 102040 39
2011-05-17 07:05:49 51°16.915 2°52.596 10.1 22 12.6 102040 40
2011-05-17 07:05:54 51°16.931 2°52.592 5.1 244 12.6 102040 40
2011-05-17 07:06:00 51°16.95 2°52.589 9.9 26 12.6 102040 39
2011-05-17 07:06:05 51°16.965 2°52.585 5 242 12.6 102040 39
2011-05-17 07:06:09 51°16.978 2°52.582 8.8 21 12.6 102040 39
2011-05-17 07:06:13 51°16.991 2°52.579 10.4 246 12.6 102040 39
2011-05-17 07:06:20 51°17.013 2°52.574 9.7 20 12.6 102050 40
2011-05-17 07:06:25 51°17.029 2°52.57 11.1 242 12.6 102050 40
2011-05-17 07:06:29 51°17.042 2°52.567 10.2 21 12.6 102050 40
2011-05-17 07:06:34 51°17.058 2°52.564 12.1 243 12.6 102050 40
2011-05-17 07:06:39 51°17.073 2°52.559 11.2 21 12.6 102050 40
2011-05-17 07:06:45 51°17.092 2°52.554 10.7 31 12.6 102050 40
2011-05-17 07:06:49 51°17.105 2°52.551 8.4 23 12.6 102050 39
2011-05-17 07:06:53 51°17.117 2°52.548 12.1 242 12.6 102050 39
2011-05-17 07:06:59 51°17.136 2°52.542 10.9 25 12.6 102050 40
2011-05-17 07:07:05 51°17.155 2°52.537 4.9 240 12.6 102050 40
2011-05-17 07:07:09 51°17.168 2°52.532 4.9 24 12.5 102050 40
2011-05-17 07:07:15 51°17.187 2°52.526 9.6 240 12.5 102050 40
2011-05-17 07:07:19 51°17.199 2°52.521 9.9 18 12.5 102050 39
2011-05-17 07:07:24 51°17.215 2°52.515 9.1 242 12.5 102050 39
2011-05-17 07:07:29 51°17.231 2°52.51 5.9 23 12.5 102050 40
2011-05-17 07:07:34 51°17.247 2°52.504 10.3 242 12.5 102050 40
2011-05-17 07:07:40 51°17.266 2°52.498 5.3 25 12.6 102050 38
2011-05-17 07:07:45 51°17.282 2°52.494 9.9 247 12.6 102050 38
2011-05-17 07:07:49 51°17.294 2°52.494 9.9 249 12.5 102050 39
2011-05-17 07:07:55 51°17.313 2°52.495 8.5 253 12.5 102050 39
2011-05-17 07:08:00 51°17.329 2°52.5 8.1 254 12.5 102040 39
2011-05-17 07:08:05 51°17.344 2°52.506 8.5 248 12.5 102040 39
2011-05-17 07:08:09 51°17.356 2°52.512 7.4 252 12.5 102040 39
2011-05-17 07:08:14 51°17.37 2°52.521 8 252 12.5 102040 39
2011-05-17 07:08:20 51°17.388 2°52.53 8.8 252 12.5 102060 40
2011-05-17 07:08:25 51°17.403 2°52.54 6.7 247 12.5 102060 40
2011-05-17 07:08:29 51°17.415 2°52.546 7.5 249 12.5 102060 40
2011-05-17 07:08:33 51°17.426 2°52.554 7 251 12.5 102060 40
2011-05-17 07:08:40 51°17.447 2°52.568 8.7 251 12.5 102060 40
2011-05-17 07:08:45 51°17.46 2°52.58 8.7 251 12.5 102060 40
2011-05-17 07:08:49 51°17.472 2°52.587 7.9 252 12.5 102070 40
2011-05-17 07:08:54 51°17.486 2°52.598 9 250 12.5 102070 40
2011-05-17 07:09:00 51°17.503 2°52.612 7.1 251 12.5 102070 40
2011-05-17 07:09:05 51°17.517 2°52.621 7 251 12.5 102070 40
2011-05-17 07:09:09 51°17.528 2°52.631 8.5 254 12.6 102070 39
2011-05-17 07:09:13 51°17.54 2°52.639 7.7 255 12.6 102070 39
2011-05-17 07:09:19 51°17.556 2°52.652 7.1 252 12.6 102060 40
2011-05-17 07:09:24 51°17.57 2°52.663 6.7 253 12.6 102060 40
2011-05-17 07:09:29 51°17.584 2°52.675 8 252 12.6 102060 39
2011-05-17 07:09:35 51°17.601 2°52.688 7.7 256 12.6 102060 39
2011-05-17 07:09:39 51°17.613 2°52.697 6.8 256 12.6 102060 39
2011-05-17 07:09:44 51°17.626 2°52.71 7.5 253 12.6 102060 39
2011-05-17 07:09:49 51°17.64 2°52.721 6.1 255 12.6 102060 40
2011-05-17 07:09:54 51°17.654 2°52.735 5.4 260 12.6 102060 40
2011-05-17 07:10:00 51°17.669 2°52.751 5.6 254 12.6 102070 40
2011-05-17 07:10:05 51°17.683 2°52.766 5.7 260 12.6 102070 40
2011-05-17 07:10:09 51°17.694 2°52.776 5.6 261 12.6 102070 40
2011-05-17 07:10:14 51°17.706 2°52.792 6.4 259 12.6 102070 40
2011-05-17 07:10:20 51°17.722 2°52.809 4.9 260 12.6 102070 37
2011-05-17 07:10:25 51°17.734 2°52.824 6.1 257 12.6 102070 37
2011-05-17 07:10:29 51°17.744 2°52.836 5.1 260 12.6 102070 40
2011-05-17 07:10:34 51°17.757 2°52.851 2.8 263 12.6 102070 40
2011-05-17 07:10:39 51°17.769 2°52.867 5 281 12.6 102070 40
2011-05-17 07:10:45 51°17.784 2°52.887 4.8 262 12.6 102070 40
2011-05-17 07:10:49 51°17.793 2°52.901 3.5 263 12.6 102070 39
2011-05-17 07:10:54 51°17.804 2°52.918 5.6 260 12.6 102070 39
2011-05-17 07:11:00 51°17.818 2°52.938 5 261 12.6 102080 38
2011-05-17 07:11:05 51°17.83 2°52.955 5.7 258 12.6 102080 38
2011-05-17 07:11:09 51°17.84 2°52.968 5.7 260 12.6 102070 40
2011-05-17 07:11:13 51°17.849 2°52.981 4 263 12.6 102070 40
2011-05-17 07:11:19 51°17.863 2°53.001 3.8 264 12.6 102070 39
2011-05-17 07:11:25 51°17.879 2°53.02 3.2 262 12.6 102070 39
2011-05-17 07:11:29 51°17.888 2°53.033 4.6 261 12.6 102070 40
2011-05-17 07:11:35 51°17.903 2°53.051 3.6 264 12.6 102070 40
2011-05-17 07:11:39 51°17.913 2°53.064 4.5 255 12.6 102070 39
2011-05-17 07:11:44 51°17.926 2°53.079 5.7 257 12.6 102070 39
2011-05-17 07:11:49 51°17.938 2°53.094 5.4 253 12.6 102070 40
2011-05-17 07:11:54 51°17.951 2°53.11 6.8 257 12.6 102070 40
2011-05-17 07:12:00 51°17.967 2°53.127 7.9 256 12.6 102060 38
2011-05-17 07:12:05 51°17.979 2°53.143 6.6 257 12.6 102060 38
2011-05-17 07:12:09 51°17.989 2°53.155 6.3 259 12.6 102070 40
2011-05-17 07:12:15 51°18.004 2°53.174 7.1 258 12.6 102070 40
2011-05-17 07:12:20 51°18.016 2°53.19 5.6 260 12.6 102070 39
2011-05-17 07:12:25 51°18.027 2°53.207 4.9 262 12.6 102070 39
2011-05-17 07:12:29 51°18.037 2°53.219 4.9 263 12.6 102070 39
2011-05-17 07:12:34 51°18.049 2°53.236 3.5 262 12.6 102070 39
2011-05-17 07:12:40 51°18.063 2°53.254 4 262 12.6 102070 39
2011-05-17 07:12:45 51°18.075 2°53.271 2.3 265 12.6 102070 39
2011-05-17 07:12:49 51°18.085 2°53.283 3.6 263 12.6 102060 38
2011-05-17 07:12:54 51°18.097 2°53.299 5.6 259 12.6 102060 38
2011-05-17 07:13:00 51°18.112 2°53.316 4.6 260 12.6 102070 37
2011-05-17 07:13:05 51°18.124 2°53.333 5.1 260 12.6 102070 37
2011-05-17 07:13:09 51°18.135 2°53.344 4.9 261 12.6 102060 38
2011-05-17 07:13:14 51°18.147 2°53.361 6.2 259 12.6 102060 38
2011-05-17 07:13:20 51°18.161 2°53.38 3.1 261 12.6 102070 39
2011-05-17 07:13:25 51°18.174 2°53.396 3.5 262 12.6 102070 39
2011-05-17 07:13:29 51°18.183 2°53.409 3.3 262 12.6 102070 39
2011-05-17 07:13:33 51°18.193 2°53.421 2 266 12.6 102070 39
2011-05-17 07:13:39 51°18.208 2°53.44 2.3 266 12.6 102060 40
2011-05-17 07:13:45 51°18.223 2°53.458 4.7 262 12.6 102060 40
2011-05-17 07:13:49 51°18.233 2°53.471 4.3 264 12.6 102070 40
2011-05-17 07:13:55 51°18.248 2°53.489 4.1 266 12.6 102070 40
2011-05-17 07:13:59 51°18.257 2°53.502 2.7 264 12.6 102070 40
2011-05-17 07:14:04 51°18.27 2°53.516 2.4 262 12.6 102070 40
2011-05-17 07:14:09 51°18.282 2°53.532 3.5 262 12.6 102070 40
2011-05-17 07:14:14 51°18.295 2°53.546 5.5 260 12.6 102070 40
2011-05-17 07:14:20 51°18.309 2°53.565 3.8 264 12.5 102070 40
2011-05-17 07:14:25 51°18.321 2°53.581 5.1 259 12.5 102070 40
2011-05-17 07:14:29 51°18.332 2°53.593 5.7 256 12.6 102060 40
2011-05-17 07:14:35 51°18.346 2°53.611 5.8 259 12.6 102060 40
2011-05-17 07:14:40 51°18.359 2°53.625 5.5 261 12.6 102060 38
2011-05-17 07:14:45 51°18.372 2°53.64 6 258 12.6 102060 38
2011-05-17 07:14:49 51°18.382 2°53.651 4.6 261 12.6 102070 39
2011-05-17 07:14:54 51°18.395 2°53.666 4 263 12.6 102070 39
2011-05-17 07:15:00 51°18.411 2°53.683 4.7 261 12.6 102070 40
2011-05-17 07:15:05 51°18.423 2°53.698 3.5 264 12.6 102070 40
2011-05-17 07:15:09 51°18.433 2°53.71 4.4 259 12.6 102070 40
2011-05-17 07:15:13 51°18.443 2°53.722 5.2 260 12.6 102070 40
2011-05-17 07:15:20 51°18.459 2°53.747 5.1 262 12.6 102080 39
2011-05-17 07:15:25 51°18.47 2°53.765 1.3 265 12.6 102080 39
2011-05-17 07:15:29 51°18.478 2°53.78 2.1 264 12.6 102070 40
2011-05-17 07:15:34 51°18.489 2°53.798 0.2 262 12.6 102070 40
2011-05-17 07:15:39 51°18.499 2°53.817 4.8 258 12.6 102070 38
2011-05-17 07:15:45 51°18.511 2°53.84 1.6 262 12.6 102070 38
2011-05-17 07:15:49 51°18.52 2°53.855 3 263 12.6 102070 40
2011-05-17 07:15:53 51°18.528 2°53.871 2.2 265 12.6 102070 40
2011-05-17 07:15:59 51°18.541 2°53.894 1.5 263 12.6 102070 39
2011-05-17 07:16:05 51°18.553 2°53.918 0.1 262 12.6 102070 39
2011-05-17 07:16:09 51°18.562 2°53.933 0.1 256 12.6 102070 39
2011-05-17 07:16:15 51°18.575 2°53.956 2.9 265 12.6 102070 39
2011-05-17 07:16:19 51°18.583 2°53.971 3.8 267 12.6 102070 39
2011-05-17 07:16:24 51°18.594 2°53.989 3.4 269 12.6 102070 39
2011-05-17 07:16:29 51°18.605 2°54.007 3 264 12.6 102070 39
2011-05-17 07:16:34 51°18.617 2°54.025 3.3 263 12.6 102070 39
2011-05-17 07:16:40 51°18.63 2°54.047 3.1 268 12.6 102070 40
2011-05-17 07:16:45 51°18.641 2°54.066 1.8 266 12.6 102070 40
2011-05-17 07:16:49 51°18.649 2°54.081 1.2 266 12.6 102070 40
2011-05-17 07:16:54 51°18.659 2°54.101 0.1 263 12.6 102070 40
2011-05-17 07:17:00 51°18.672 2°54.123 0.1 260 12.6 102070 38
2011-05-17 07:17:05 51°18.682 2°54.143 -999 263 12.6 102070 38
2011-05-17 07:17:09 51°18.69 2°54.158 -999 265 12.6 102070 38
2011-05-17 07:17:14 51°18.7 2°54.178 2.9 267 12.6 102070 38
2011-05-17 07:17:20 51°18.713 2°54.201 3 267 12.6 102070 39
2011-05-17 07:17:25 51°18.724 2°54.219 0.2 259 12.6 102070 39
2011-05-17 07:17:29 51°18.732 2°54.234 0.1 266 12.6 102070 39
2011-05-17 07:17:33 51°18.74 2°54.25 -999 267 12.6 102070 39
2011-05-17 07:17:40 51°18.754 2°54.277 -999 29 12.6 102080 38
2011-05-17 07:17:45 51°18.764 2°54.296 -999 35 12.6 102080 38
2011-05-17 07:17:49 51°18.772 2°54.312 -999 24 12.6 102070 39
2011-05-17 07:17:54 51°18.782 2°54.331 -999 265 12.6 102070 39
2011-05-17 07:17:59 51°18.792 2°54.35 -999 267 12.6 102070 39
2011-05-17 07:18:05 51°18.805 2°54.372 -999 270 12.6 102070 39
2011-05-17 07:18:09 51°18.813 2°54.388 -999 260 12.6 102080 39
2011-05-17 07:18:13 51°18.821 2°54.402 -999 263 12.6 102080 39
2011-05-17 07:18:19 51°18.833 2°54.425 -999 259 12.6 102080 38
2011-05-17 07:18:25 51°18.845 2°54.448 3.2 264 12.6 102080 38
2011-05-17 07:18:29 51°18.852 2°54.464 2.6 283 12.6 102070 39
2011-05-17 07:18:34 51°18.862 2°54.483 2.7 265 12.6 102070 39
2011-05-17 07:18:39 51°18.871 2°54.504 1.3 265 12.6 102070 38
2011-05-17 07:18:45 51°18.881 2°54.529 4.2 40 12.6 102070 38
2011-05-17 07:18:49 51°18.888 2°54.547 3.5 27 12.6 102080 40
2011-05-17 07:18:55 51°18.896 2°54.574 3.5 34 12.6 102080 40
2011-05-17 07:18:59 51°18.903 2°54.59 3.4 22 12.7 102080 38
2011-05-17 07:19:04 51°18.91 2°54.614 0.2 267 12.7 102080 38
2011-05-17 07:19:09 51°18.918 2°54.635 0.1 269 12.7 102070 38
2011-05-17 07:19:15 51°18.926 2°54.663 0.2 31 12.7 102070 38
2011-05-17 07:19:19 51°18.934 2°54.68 3.2 21 12.6 102080 36
2011-05-17 07:19:25 51°18.942 2°54.707 2.2 268 12.6 102080 36
2011-05-17 07:19:29 51°18.948 2°54.724 2.4 29 12.6 102080 39
2011-05-17 07:19:34 51°18.954 2°54.747 0.9 270 12.6 102080 39
2011-05-17 07:19:39 51°18.962 2°54.769 0.3 269 12.6 102080 39
2011-05-17 07:19:45 51°18.97 2°54.795 3.9 35 12.6 102080 39
2011-05-17 07:19:49 51°18.976 2°54.813 3.7 21 12.6 102070 38
2011-05-17 07:19:54 51°18.983 2°54.835 2.5 33 12.6 102070 38
2011-05-17 07:19:59 51°18.991 2°54.857 2.5 22 12.6 102070 39
2011-05-17 07:20:05 51°18.998 2°54.884 2 39 12.6 102070 39
2011-05-17 07:20:09 51°19.004 2°54.901 1.6 20 12.6 102070 39
2011-05-17 07:20:14 51°19.011 2°54.924 0.1 40 12.6 102070 39
2011-05-17 07:20:19 51°19.018 2°54.947 0.1 21 12.6 102080 40
2011-05-17 07:20:25 51°19.026 2°54.974 2.9 32 12.6 102080 40
2011-05-17 07:20:29 51°19.032 2°54.992 2.8 27 12.6 102080 39
2011-05-17 07:20:34 51°19.039 2°55.014 2.8 37 12.6 102080 39
2011-05-17 07:20:39 51°19.047 2°55.036 2.6 25 12.6 102080 39
2011-05-17 07:20:45 51°19.055 2°55.063 2 32 12.6 102080 39
2011-05-17 07:20:49 51°19.061 2°55.081 1.5 22 12.6 102080 40
2011-05-17 07:20:55 51°19.07 2°55.107 2.4 33 12.6 102080 40
2011-05-17 07:20:59 51°19.076 2°55.125 2.2 22 12.6 102080 39
2011-05-17 07:21:04 51°19.084 2°55.147 0.1 35 12.6 102080 39
2011-05-17 07:21:09 51°19.091 2°55.169 0.1 23 12.6 102080 40
2011-05-17 07:21:14 51°19.098 2°55.191 -999 35 12.6 102080 40
2011-05-17 07:21:20 51°19.107 2°55.217 -999 23 12.6 102080 39
2011-05-17 07:21:25 51°19.113 2°55.239 -999 35 12.6 102080 39
2011-05-17 07:21:29 51°19.119 2°55.257 -999 23 12.6 102080 39
2011-05-17 07:21:35 51°19.126 2°55.285 -999 35 12.6 102080 39
2011-05-17 07:21:40 51°19.131 2°55.308 -999 24 12.7 102080 39
2011-05-17 07:21:45 51°19.139 2°55.33 -999 30 12.7 102080 39
2011-05-17 07:21:49 51°19.144 2°55.348 -999 25 12.7 102080 39
2011-05-17 07:21:54 51°19.152 2°55.369 -999 35 12.7 102080 39
2011-05-17 07:22:00 51°19.161 2°55.396 -999 23 12.6 102070 39
2011-05-17 07:22:05 51°19.17 2°55.417 -999 265 12.6 102070 39
2011-05-17 07:22:09 51°19.175 2°55.435 -999 265 12.6 102080 39
2011-05-17 07:22:13 51°19.181 2°55.453 -999 270 12.6 102080 39
2011-05-17 07:22:19 51°19.19 2°55.479 -999 28 12.6 102080 39
2011-05-17 07:22:25 51°19.2 2°55.506 -999 38 12.6 102080 39
2011-05-17 07:22:29 51°19.206 2°55.523 -999 26 12.6 102070 39
2011-05-17 07:22:34 51°19.214 2°55.545 -999 35 12.6 102070 39
2011-05-17 07:22:39 51°19.223 2°55.566 -999 28 12.7 102070 39
2011-05-17 07:22:45 51°19.232 2°55.592 -999 35 12.7 102070 39
2011-05-17 07:22:49 51°19.238 2°55.609 -999 24 12.7 102070 38
2011-05-17 07:22:55 51°19.247 2°55.636 -999 35 12.7 102070 38
2011-05-17 07:22:59 51°19.253 2°55.653 -999 24 12.7 102070 39
2011-05-17 07:23:04 51°19.26 2°55.675 -999 35 12.7 102070 39
2011-05-17 07:23:09 51°19.266 2°55.698 -999 287 12.6 102080 39
2011-05-17 07:23:15 51°19.275 2°55.725 -999 268 12.6 102080 39
2011-05-17 07:23:19 51°19.281 2°55.742 -999 266 12.6 102080 39
2011-05-17 07:23:25 51°19.289 2°55.768 -999 265 12.6 102080 39
2011-05-17 07:23:29 51°19.294 2°55.786 -999 78 12.6 102070 39
2011-05-17 07:23:35 51°19.302 2°55.813 -999 40 12.6 102070 39
2011-05-17 07:23:40 51°19.31 2°55.834 -999 26 12.6 102080 38
2011-05-17 07:23:44 51°19.315 2°55.852 -999 35 12.6 102080 38
2011-05-17 07:23:49 51°19.322 2°55.874 -999 24 12.6 102070 38
2011-05-17 07:23:55 51°19.331 2°55.901 -999 35 12.6 102070 38
2011-05-17 07:24:00 51°19.337 2°55.923 -999 24 12.7 102080 39
2011-05-17 07:24:05 51°19.344 2°55.944 2.3 41 12.7 102080 39
2011-05-17 07:24:09 51°19.349 2°55.963 2.4 22 12.7 102080 39
2011-05-17 07:24:15 51°19.36 2°55.987 2.1 40 12.7 102080 39
2011-05-17 07:24:20 51°19.366 2°56.01 1.7 27 12.7 102070 39
2011-05-17 07:24:25 51°19.375 2°56.03 2.2 40 12.7 102070 39
2011-05-17 07:24:29 51°19.381 2°56.048 1.5 267 12.7 102070 40
2011-05-17 07:24:33 51°19.387 2°56.065 2 43 12.7 102070 40
2011-05-17 07:24:39 51°19.396 2°56.09 2.4 29 12.7 102070 39
2011-05-17 07:24:45 51°19.404 2°56.116 3 37 12.7 102070 39
2011-05-17 07:24:49 51°19.411 2°56.133 3.6 22 12.7 102080 38
2011-05-17 07:24:55 51°19.419 2°56.16 2.7 34 12.7 102080 38
2011-05-17 07:24:59 51°19.425 2°56.177 3.8 22 12.7 102070 40
2011-05-17 07:25:05 51°19.435 2°56.202 3.3 36 12.7 102070 40
2011-05-17 07:25:09 51°19.441 2°56.219 3.1 26 12.7 102070 39
2011-05-17 07:25:14 51°19.45 2°56.239 2.7 32 12.7 102070 39
2011-05-17 07:25:20 51°19.459 2°56.265 2.8 22 12.7 102080 39
2011-05-17 07:25:24 51°19.465 2°56.283 1.6 36 12.7 102080 39
2011-05-17 07:25:29 51°19.472 2°56.305 1.1 79 12.6 102080 40
2011-05-17 07:25:35 51°19.48 2°56.333 2.2 33 12.6 102080 40
2011-05-17 07:25:40 51°19.487 2°56.355 2.5 19 12.6 102070 38
2011-05-17 07:25:44 51°19.491 2°56.374 0.5 35 12.6 102070 38
2011-05-17 07:25:49 51°19.496 2°56.398 1.6 25 12.6 102080 41
2011-05-17 07:25:54 51°19.5 2°56.422 0.3 39 12.6 102080 41
2011-05-17 07:26:00 51°19.505 2°56.451 0.7 21 12.6 102080 38
2011-05-17 07:26:05 51°19.508 2°56.475 0.1 35 12.6 102080 38
2011-05-17 07:26:09 51°19.511 2°56.494 0.1 24 12.6 102080 40
2011-05-17 07:26:14 51°19.513 2°56.519 0.8 31 12.6 102080 40
2011-05-17 07:26:20 51°19.517 2°56.548 0.2 21 12.6 102070 37
2011-05-17 07:26:25 51°19.519 2°56.573 1.1 37 12.6 102070 37
2011-05-17 07:26:29 51°19.522 2°56.592 1.8 25 12.6 102070 39
2011-05-17 07:26:34 51°19.524 2°56.617 0.9 38 12.6 102070 39
2011-05-17 07:26:40 51°19.528 2°56.646 0.4 20 12.6 102080 39
2011-05-17 07:26:45 51°19.531 2°56.672 0.4 32 12.6 102080 39
2011-05-17 07:26:49 51°19.534 2°56.691 0.2 22 12.6 102070 38
2011-05-17 07:26:53 51°19.536 2°56.711 0.1 35 12.6 102070 38
2011-05-17 07:26:59 51°19.54 2°56.741 -999 23 12.6 102070 40
2011-05-17 07:27:05 51°19.544 2°56.77 -999 35 12.6 102070 40
2011-05-17 07:27:09 51°19.546 2°56.79 0.1 23 12.6 102070 39
2011-05-17 07:27:15 51°19.55 2°56.819 0.1 35 12.6 102070 39
2011-05-17 07:27:19 51°19.553 2°56.839 0.1 23 12.7 102070 39
2011-05-17 07:27:25 51°19.557 2°56.868 -999 35 12.7 102070 39
2011-05-17 07:27:29 51°19.559 2°56.887 -999 23 12.7 102070 39
2011-05-17 07:27:34 51°19.562 2°56.912 -999 35 12.7 102070 39
2011-05-17 07:27:40 51°19.565 2°56.941 -999 24 12.7 102070 39
2011-05-17 07:27:44 51°19.567 2°56.961 -999 35 12.7 102070 39
2011-05-17 07:27:49 51°19.57 2°56.986 -999 78 12.7 102070 39
2011-05-17 07:27:55 51°19.575 2°57.015 -999 35 12.7 102070 39
2011-05-17 07:28:00 51°19.578 2°57.039 -999 24 12.7 102070 39
2011-05-17 07:28:05 51°19.583 2°57.063 -999 43 12.7 102070 39
2011-05-17 07:28:09 51°19.585 2°57.082 -999 24 12.7 102070 39
2011-05-17 07:28:14 51°19.589 2°57.107 -999 35 12.7 102070 39
2011-05-17 07:28:20 51°19.594 2°57.135 -999 23 12.7 102070 39
2011-05-17 07:28:25 51°19.598 2°57.159 -999 35 12.7 102070 39
2011-05-17 07:28:29 51°19.601 2°57.177 -999 24 12.7 102070 39
2011-05-17 07:28:34 51°19.606 2°57.201 -999 36 12.7 102070 39
2011-05-17 07:28:40 51°19.612 2°57.229 -999 24 12.7 102070 40
2011-05-17 07:28:45 51°19.615 2°57.252 -999 44 12.7 102070 40
2011-05-17 07:28:49 51°19.618 2°57.271 -999 23 12.8 102070 40
2011-05-17 07:28:54 51°19.622 2°57.294 -999 35 12.8 102070 40
2011-05-17 07:29:00 51°19.626 2°57.323 -999 23 12.8 102070 38
2011-05-17 07:29:05 51°19.63 2°57.346 -999 35 12.8 102070 38
2011-05-17 07:29:09 51°19.633 2°57.365 -999 78 12.8 102070 39
2011-05-17 07:29:13 51°19.636 2°57.384 -999 35 12.8 102070 39
2011-05-17 07:29:19 51°19.641 2°57.413 -999 24 12.8 102070 39
2011-05-17 07:29:25 51°19.646 2°57.441 -999 35 12.8 102070 39
2011-05-17 07:29:29 51°19.65 2°57.46 -999 24 12.8 102070 39
2011-05-17 07:29:35 51°19.655 2°57.489 -999 35 12.8 102070 39
2011-05-17 07:29:39 51°19.66 2°57.507 -999 24 12.8 102070 39
2011-05-17 07:29:45 51°19.666 2°57.535 -999 35 12.8 102070 39
2011-05-17 07:29:49 51°19.67 2°57.554 -999 24 12.7 102070 39
2011-05-17 07:29:54 51°19.674 2°57.578 -999 35 12.7 102070 39
2011-05-17 07:30:00 51°19.681 2°57.606 -999 24 12.8 102070 39
2011-05-17 07:30:05 51°19.686 2°57.63 -999 35 12.8 102070 39
2011-05-17 07:30:09 51°19.69 2°57.648 -999 29 12.8 102070 39
2011-05-17 07:30:14 51°19.694 2°57.672 -999 36 12.8 102070 39
2011-05-17 07:30:20 51°19.701 2°57.7 -999 24 12.8 102070 39
2011-05-17 07:30:25 51°19.705 2°57.724 -999 35 12.8 102070 39
2011-05-17 07:30:29 51°19.708 2°57.744 -999 24 12.8 102070 39
2011-05-17 07:30:34 51°19.713 2°57.768 0.1 32 12.8 102070 39
2011-05-17 07:30:40 51°19.718 2°57.797 0.1 21 12.9 102070 40
2011-05-17 07:30:45 51°19.721 2°57.821 0.1 35 12.9 102070 40
2011-05-17 07:30:49 51°19.724 2°57.84 -999 23 12.9 102070 40
2011-05-17 07:30:53 51°19.726 2°57.86 -999 35 12.9 102070 40
2011-05-17 07:31:00 51°19.732 2°57.895 -999 23 12.9 102070 39
2011-05-17 07:31:05 51°19.734 2°57.921 -999 35 12.9 102070 39
2011-05-17 07:31:09 51°19.737 2°57.941 -999 24 12.9 102070 39
2011-05-17 07:31:14 51°19.74 2°57.965 -999 35 12.9 102070 39
2011-05-17 07:31:19 51°19.743 2°57.99 -999 23 12.9 102070 39
2011-05-17 07:31:25 51°19.746 2°58.02 -999 37 12.9 102070 39
2011-05-17 07:31:29 51°19.748 2°58.04 -999 43 12.9 102070 39
2011-05-17 07:31:33 51°19.752 2°58.059 -999 41 12.9 102070 39
2011-05-17 07:31:39 51°19.756 2°58.089 -999 24 12.8 102070 37
2011-05-17 07:31:45 51°19.761 2°58.119 -999 35 12.8 102070 37
2011-05-17 07:31:49 51°19.764 2°58.139 -999 78 12.8 102070 39
2011-05-17 07:31:54 51°19.768 2°58.164 -999 36 12.8 102070 39
2011-05-17 07:31:59 51°19.771 2°58.188 -999 24 12.8 102070 39
2011-05-17 07:32:05 51°19.776 2°58.217 0.2 37 12.8 102070 39
2011-05-17 07:32:09 51°19.778 2°58.237 0.1 78 12.8 102070 39
2011-05-17 07:32:15 51°19.783 2°58.268 0.1 32 12.8 102070 39
2011-05-17 07:32:19 51°19.785 2°58.288 0.1 40 12.8 102070 39
2011-05-17 07:32:24 51°19.788 2°58.312 -999 35 12.8 102070 39
2011-05-17 07:32:29 51°19.79 2°58.336 -999 39 12.8 102070 39
2011-05-17 07:32:35 51°19.794 2°58.365 -999 35 12.8 102070 39
2011-05-17 07:32:39 51°19.796 2°58.385 0.1 29 12.8 102070 39
2011-05-17 07:32:45 51°19.8 2°58.414 1.3 32 12.8 102070 39
2011-05-17 07:32:49 51°19.803 2°58.433 0.3 22 12.9 102070 39
2011-05-17 07:32:55 51°19.808 2°58.461 0.1 35 12.9 102070 39
2011-05-17 07:33:00 51°19.812 2°58.485 0.1 23 12.9 102070 40
2011-05-17 07:33:05 51°19.817 2°58.509 0.5 39 12.9 102070 40
2011-05-17 07:33:09 51°19.82 2°58.528 0.2 26 12.9 102070 39
2011-05-17 07:33:15 51°19.826 2°58.556 0.1 35 12.9 102070 39
2011-05-17 07:33:20 51°19.829 2°58.579 0.1 24 12.8 102070 39
2011-05-17 07:33:25 51°19.834 2°58.602 -999 35 12.8 102070 39
2011-05-17 07:33:29 51°19.837 2°58.621 -999 41 12.8 102070 39
2011-05-17 07:33:33 51°19.84 2°58.64 -999 35 12.8 102070 39
2011-05-17 07:33:40 51°19.846 2°58.673 -999 24 12.8 102070 39
2011-05-17 07:33:45 51°19.851 2°58.696 -999 35 12.8 102070 39
2011-05-17 07:33:49 51°19.855 2°58.714 -999 24 12.8 102070 39
2011-05-17 07:33:54 51°19.86 2°58.737 1.6 35 12.8 102070 39
2011-05-17 07:33:59 51°19.865 2°58.759 1.6 24 12.9 102070 39
2011-05-17 07:34:05 51°19.87 2°58.787 0.2 35 12.9 102070 39
2011-05-17 07:34:09 51°19.874 2°58.806 1.3 42 12.9 102080 39
2011-05-17 07:34:15 51°19.879 2°58.834 0.2 38 12.9 102080 39
2011-05-17 07:34:19 51°19.882 2°58.852 0.2 21 12.9 102070 38
2011-05-17 07:34:24 51°19.886 2°58.876 0.2 35 12.9 102070 38
2011-05-17 07:34:29 51°19.89 2°58.899 0.1 23 12.9 102070 39
2011-05-17 07:34:34 51°19.894 2°58.923 -999 40 12.9 102070 39
2011-05-17 07:34:40 51°19.898 2°58.952 -999 27 13 102070 41
2011-05-17 07:34:45 51°19.902 2°58.976 0.2 37 13 102070 41
2011-05-17 07:34:49 51°19.905 2°58.995 0.8 25 13 102070 39
2011-05-17 07:34:54 51°19.908 2°59.019 0.3 32 13 102070 39
2011-05-17 07:35:00 51°19.912 2°59.048 0.2 21 13 102070 40
2011-05-17 07:35:05 51°19.916 2°59.072 0.3 31 13 102070 40
2011-05-17 07:35:09 51°19.917 2°59.092 1.2 27 13 102070 38
2011-05-17 07:35:14 51°19.92 2°59.116 0.1 36 13 102070 38
2011-05-17 07:35:20 51°19.925 2°59.145 0.1 24 13 102070 41
2011-05-17 07:35:25 51°19.929 2°59.169 1 33 13 102070 41
2011-05-17 07:35:29 51°19.933 2°59.187 0.5 74 13 102070 40
2011-05-17 07:35:33 51°19.937 2°59.206 0.1 33 13 102070 40
2011-05-17 07:35:40 51°19.942 2°59.239 0.1 22 13 102070 39
2011-05-17 07:35:45 51°19.947 2°59.263 0.1 39 13 102070 39
2011-05-17 07:35:49 51°19.95 2°59.282 0.1 27 13 102070 38
2011-05-17 07:35:53 51°19.953 2°59.301 -999 35 13 102070 38
2011-05-17 07:35:59 51°19.958 2°59.329 -999 24 13 102070 39
2011-05-17 07:36:05 51°19.963 2°59.357 -999 35 13 102070 39
2011-05-17 07:36:09 51°19.966 2°59.377 -999 24 13 102060 39
2011-05-17 07:36:14 51°19.972 2°59.4 -999 35 13 102060 39
2011-05-17 07:36:19 51°19.975 2°59.423 -999 24 13 102070 39
2011-05-17 07:36:24 51°19.979 2°59.447 0.1 34 13 102070 39
2011-05-17 07:36:29 51°19.982 2°59.47 -999 78 13 102070 39
2011-05-17 07:36:35 51°19.986 2°59.498 -999 35 13 102070 39
2011-05-17 07:36:39 51°19.989 2°59.517 -999 23 13 102070 39
2011-05-17 07:36:44 51°19.993 2°59.541 -999 35 13 102070 39
2011-05-17 07:36:49 51°19.997 2°59.564 -999 23 13 102070 39
2011-05-17 07:36:54 51°20.001 2°59.587 -999 35 13 102070 39
2011-05-17 07:36:59 51°20.005 2°59.61 -999 23 13 102070 37
2011-05-17 07:37:05 51°20.01 2°59.637 -999 35 13 102070 37
2011-05-17 07:37:09 51°20.013 2°59.656 -999 23 13 102060 39
2011-05-17 07:37:15 51°20.019 2°59.684 -999 35 13 102060 39
2011-05-17 07:37:20 51°20.024 2°59.707 -999 24 13 102070 39
2011-05-17 07:37:25 51°20.029 2°59.729 -999 36 13 102070 39
2011-05-17 07:37:29 51°20.033 2°59.748 -999 24 13 102060 39
2011-05-17 07:37:34 51°20.038 2°59.77 -999 35 13 102060 39
2011-05-17 07:37:40 51°20.044 2°59.797 -999 24 13 102060 39
2011-05-17 07:37:45 51°20.049 2°59.82 0.1 267 13 102060 39
2011-05-17 07:37:49 51°20.052 2°59.838 0.1 282 13 102060 39
2011-05-17 07:37:53 51°20.056 2°59.856 -999 264 13 102060 39
2011-05-17 07:38:00 51°20.064 2°59.887 -999 29 13.1 102060 39
2011-05-17 07:38:05 51°20.068 2°59.91 -999 35 13.1 102060 39
2011-05-17 07:38:09 51°20.072 2°59.928 -999 24 13.1 102060 39
2011-05-17 07:38:13 51°20.075 2°59.947 -999 270 13.1 102060 39
2011-05-17 07:38:19 51°20.078 2°59.975 -999 27 13.1 102070 40
2011-05-17 07:38:25 51°20.084 3°0.003 -999 37 13.1 102070 40
2011-05-17 07:38:29 51°20.086 3°0.021 -999 24 13.1 102070 39
2011-05-17 07:38:34 51°20.09 3°0.045 -999 38 13.1 102070 39
2011-05-17 07:38:39 51°20.093 3°0.068 -999 25 13.2 102060 40
2011-05-17 07:38:44 51°20.095 3°0.091 -999 36 13.2 102060 40
2011-05-17 07:38:49 51°20.099 3°0.115 -999 24 13.2 102060 38
2011-05-17 07:38:54 51°20.101 3°0.139 -999 35 13.2 102060 38
2011-05-17 07:39:00 51°20.104 3°0.167 -999 23 13.2 102060 40
2011-05-17 07:39:05 51°20.108 3°0.19 -999 36 13.2 102060 40
2011-05-17 07:39:09 51°20.11 3°0.209 -999 25 13.2 102060 40
2011-05-17 07:39:14 51°20.115 3°0.231 0.1 34 13.2 102060 40
2011-05-17 07:39:19 51°20.12 3°0.254 0.9 20 13.2 102070 40
2011-05-17 07:39:25 51°20.126 3°0.28 0.2 270 13.2 102070 40
2011-05-17 07:39:29 51°20.13 3°0.298 0.1 26 13.3 102070 40
2011-05-17 07:39:35 51°20.136 3°0.324 0.1 35 13.3 102070 40
2011-05-17 07:39:40 51°20.141 3°0.345 0.1 23 13.3 102070 37
2011-05-17 07:39:45 51°20.146 3°0.368 -999 35 13.3 102070 37
2011-05-17 07:39:49 51°20.149 3°0.386 -999 24 13.3 102070 39
2011-05-17 07:39:54 51°20.155 3°0.407 1.8 38 13.3 102070 39
2011-05-17 07:40:00 51°20.16 3°0.433 2 26 13.3 102060 39
2011-05-17 07:40:05 51°20.166 3°0.454 2 39 13.3 102060 39
2011-05-17 07:40:09 51°20.171 3°0.472 2.7 75 13.2 102060 39
2011-05-17 07:40:13 51°20.175 3°0.489 1.5 39 13.2 102060 39
2011-05-17 07:40:20 51°20.183 3°0.519 1.4 28 13.2 102060 40
2011-05-17 07:40:25 51°20.189 3°0.539 0.1 35 13.2 102060 40
2011-05-17 07:40:29 51°20.193 3°0.558 0.1 78 13.2 102070 38
2011-05-17 07:40:34 51°20.199 3°0.579 -999 35 13.2 102070 38
2011-05-17 07:40:39 51°20.204 3°0.601 -999 24 13.2 102070 39
2011-05-17 07:40:45 51°20.21 3°0.627 -999 36 13.2 102070 39
2011-05-17 07:40:49 51°20.215 3°0.645 -999 78 13.1 102070 39
2011-05-17 07:40:53 51°20.218 3°0.663 -999 36 13.1 102070 39
2011-05-17 07:40:59 51°20.224 3°0.69 -999 24 13.1 102070 39
2011-05-17 07:41:05 51°20.229 3°0.717 0.1 33 13.1 102070 39
2011-05-17 07:41:09 51°20.233 3°0.735 0.1 78 13.1 102070 39
2011-05-17 07:41:15 51°20.239 3°0.762 1.7 35 13.1 102070 39
2011-05-17 07:41:19 51°20.243 3°0.78 0.4 20 13.1 102070 39
2011-05-17 07:41:25 51°20.248 3°0.807 0.1 35 13.1 102070 39
2011-05-17 07:41:29 51°20.252 3°0.825 -999 78 13.1 102060 39
2011-05-17 07:41:35 51°20.259 3°0.852 1 32 13.1 102060 39
2011-05-17 07:41:39 51°20.263 3°0.869 0.9 27 13.1 102060 39
2011-05-17 07:41:45 51°20.269 3°0.896 0.1 35 13.1 102060 39
2011-05-17 07:41:49 51°20.274 3°0.913 0.1 24 13.1 102060 39
2011-05-17 07:41:55 51°20.281 3°0.939 2 30 13.1 102060 39
2011-05-17 07:42:00 51°20.288 3°0.96 1.6 20 13.1 102070 40
2011-05-17 07:42:05 51°20.294 3°0.982 0.1 35 13.1 102070 40
2011-05-17 07:42:09 51°20.3 3°0.998 0.1 24 13.1 102070 39
2011-05-17 07:42:15 51°20.307 3°1.025 -999 36 13.1 102070 39
2011-05-17 07:42:20 51°20.314 3°1.047 -999 24 13.1 102060 38
2011-05-17 07:42:25 51°20.319 3°1.07 -999 35 13.1 102060 38
2011-05-17 07:42:29 51°20.324 3°1.087 -999 45 13.2 102070 40
2011-05-17 07:42:34 51°20.329 3°1.11 -999 35 13.2 102070 40
2011-05-17 07:42:40 51°20.335 3°1.137 -999 78 13.2 102070 40
2011-05-17 07:42:45 51°20.34 3°1.16 -999 35 13.2 102070 40
2011-05-17 07:42:49 51°20.344 3°1.178 -999 78 13.2 102070 39
2011-05-17 07:42:55 51°20.35 3°1.206 -999 35 13.2 102070 39
2011-05-17 07:42:59 51°20.354 3°1.224 -999 23 13.2 102070 40
2011-05-17 07:43:04 51°20.359 3°1.246 -999 35 13.2 102070 40
2011-05-17 07:43:09 51°20.365 3°1.268 -999 24 13.2 102070 39
2011-05-17 07:43:14 51°20.371 3°1.289 -999 35 13.2 102070 39
2011-05-17 07:43:19 51°20.376 3°1.312 -999 24 13.2 102070 40
2011-05-17 07:43:24 51°20.382 3°1.335 -999 35 13.2 102070 40
2011-05-17 07:43:29 51°20.386 3°1.357 -999 24 13.2 102070 40
2011-05-17 07:43:34 51°20.39 3°1.38 -999 35 13.2 102070 40
2011-05-17 07:43:40 51°20.396 3°1.407 -999 23 13.3 102060 40
2011-05-17 07:43:45 51°20.4 3°1.431 -999 35 13.3 102060 40
2011-05-17 07:43:49 51°20.404 3°1.449 -999 24 13.3 102070 40
2011-05-17 07:43:55 51°20.409 3°1.477 -999 35 13.3 102070 40
2011-05-17 07:44:00 51°20.415 3°1.499 -999 24 13.3 102060 39
2011-05-17 07:44:05 51°20.419 3°1.522 -999 43 13.3 102060 39
2011-05-17 07:44:09 51°20.423 3°1.54 -999 24 13.3 102060 39
2011-05-17 07:44:14 51°20.428 3°1.562 -999 35 13.3 102060 39
2011-05-17 07:44:20 51°20.434 3°1.589 -999 24 13.3 102070 39
2011-05-17 07:44:25 51°20.441 3°1.611 -999 35 13.3 102070 39
2011-05-17 07:44:29 51°20.446 3°1.629 -999 77 13.3 102060 39
2011-05-17 07:44:33 51°20.45 3°1.647 -999 35 13.3 102060 39
2011-05-17 07:44:40 51°20.457 3°1.678 -999 24 13.3 102070 39
2011-05-17 07:44:45 51°20.461 3°1.702 -999 35 13.3 102070 39
2011-05-17 07:44:49 51°20.466 3°1.719 -999 262 13.3 102060 39
2011-05-17 07:44:54 51°20.47 3°1.742 -999 35 13.3 102060 39
2011-05-17 07:44:59 51°20.475 3°1.765 -999 25 13.3 102070 40
2011-05-17 07:45:05 51°20.481 3°1.792 -999 35 13.3 102070 40
2011-05-17 07:45:09 51°20.485 3°1.81 -999 78 13.3 102070 40
2011-05-17 07:45:15 51°20.491 3°1.838 -999 35 13.3 102070 40
2011-05-17 07:45:19 51°20.496 3°1.855 -999 23 13.3 102060 40
2011-05-17 07:45:24 51°20.499 3°1.878 -999 268 13.3 102060 40
2011-05-17 07:45:29 51°20.505 3°1.901 -999 25 13.4 102060 40
2011-05-17 07:45:34 51°20.511 3°1.924 -999 35 13.4 102060 40
2011-05-17 07:45:40 51°20.517 3°1.951 -999 24 13.4 102060 40
2011-05-17 07:45:44 51°20.52 3°1.969 -999 35 13.4 102060 40
2011-05-17 07:45:49 51°20.525 3°1.993 -999 23 13.4 102060 40
2011-05-17 07:45:54 51°20.53 3°2.016 -999 35 13.4 102060 40
2011-05-17 07:46:00 51°20.536 3°2.045 -999 23 13.4 102060 40
2011-05-17 07:46:05 51°20.54 3°2.068 -999 35 13.4 102060 40
2011-05-17 07:46:09 51°20.543 3°2.087 -999 24 13.4 102060 40
2011-05-17 07:46:15 51°20.548 3°2.115 -999 21 13.4 102060 40
2011-05-17 07:46:20 51°20.552 3°2.139 -999 13 13.4 102070 39
2011-05-17 07:46:25 51°20.556 3°2.162 -999 37 13.4 102070 39
2011-05-17 07:46:29 51°20.56 3°2.18 -999 25 13.4 102060 39
2011-05-17 07:46:34 51°20.565 3°2.203 -999 35 13.4 102060 39
2011-05-17 07:46:40 51°20.571 3°2.23 -999 24 13.4 102060 39
2011-05-17 07:46:45 51°20.576 3°2.253 -999 35 13.4 102060 39
2011-05-17 07:46:49 51°20.581 3°2.27 -999 78 13.4 102060 39
2011-05-17 07:46:53 51°20.587 3°2.287 -999 35 13.4 102060 39
2011-05-17 07:47:00 51°20.596 3°2.318 -999 24 13.4 102060 40
2011-05-17 07:47:05 51°20.602 3°2.34 -999 35 13.4 102060 40
2011-05-17 07:47:09 51°20.607 3°2.357 -999 24 13.4 102060 40
2011-05-17 07:47:14 51°20.614 3°2.378 -999 35 13.4 102060 40
2011-05-17 07:47:19 51°20.622 3°2.399 -999 24 13.4 102060 39
2011-05-17 07:47:25 51°20.63 3°2.424 -999 35 13.4 102060 39
2011-05-17 07:47:29 51°20.636 3°2.441 -999 24 13.4 102060 39
2011-05-17 07:47:34 51°20.642 3°2.464 -999 266 13.4 102060 39
2011-05-17 07:47:40 51°20.652 3°2.488 -999 27 13.3 102060 38
2011-05-17 07:47:45 51°20.658 3°2.511 -999 270 13.3 102060 38
2011-05-17 07:47:49 51°20.664 3°2.528 -999 26 13.3 102060 39
2011-05-17 07:47:54 51°20.67 3°2.55 -999 35 13.3 102060 39
2011-05-17 07:47:59 51°20.677 3°2.571 -999 24 13.3 102060 39
2011-05-17 07:48:04 51°20.684 3°2.593 -999 35 13.3 102060 39
2011-05-17 07:48:09 51°20.692 3°2.615 -999 24 13.3 102060 39
2011-05-17 07:48:14 51°20.7 3°2.637 -999 35 13.3 102060 39
2011-05-17 07:48:19 51°20.707 3°2.658 -999 23 13.3 102060 39
2011-05-17 07:48:25 51°20.715 3°2.685 -999 35 13.3 102060 39
2011-05-17 07:48:29 51°20.721 3°2.703 -999 24 13.3 102060 39
2011-05-17 07:48:35 51°20.73 3°2.728 -999 35 13.3 102060 39
2011-05-17 07:48:40 51°20.736 3°2.751 -999 23 13.2 102060 39
2011-05-17 07:48:45 51°20.743 3°2.773 -999 265 13.2 102060 39
2011-05-17 07:48:49 51°20.749 3°2.791 -999 26 13.2 102060 39
2011-05-17 07:48:54 51°20.755 3°2.813 -999 38 13.2 102060 39
2011-05-17 07:49:00 51°20.763 3°2.84 -999 20 13.2 102060 39
2011-05-17 07:49:05 51°20.769 3°2.863 -999 35 13.2 102060 39
2011-05-17 07:49:09 51°20.773 3°2.882 -999 24 13.2 102060 39
2011-05-17 07:49:13 51°20.778 3°2.9 -999 35 13.2 102060 39
2011-05-17 07:49:20 51°20.786 3°2.932 -999 24 13.1 102060 39
2011-05-17 07:49:25 51°20.792 3°2.955 -999 35 13.1 102060 39
2011-05-17 07:49:29 51°20.796 3°2.974 -999 23 13.1 102060 39
2011-05-17 07:49:34 51°20.803 3°2.997 -999 35 13.1 102060 39
2011-05-17 07:49:39 51°20.809 3°3.019 -999 23 13.1 102070 39
2011-05-17 07:49:45 51°20.816 3°3.046 -999 35 13.1 102070 39
2011-05-17 07:49:49 51°20.822 3°3.063 -999 24 13.1 102060 39
2011-05-17 07:49:54 51°20.828 3°3.086 -999 35 13.1 102060 39
2011-05-17 07:49:59 51°20.834 3°3.109 -999 23 13.1 102060 39
2011-05-17 07:50:05 51°20.841 3°3.136 -999 35 13.1 102060 39
2011-05-17 07:50:09 51°20.847 3°3.155 -999 24 13.1 102060 39
2011-05-17 07:50:14 51°20.854 3°3.177 -999 35 13.1 102060 39
2011-05-17 07:50:19 51°20.861 3°3.199 -999 24 13.1 102060 37
2011-05-17 07:50:24 51°20.868 3°3.221 -999 270 13.1 102060 37
2011-05-17 07:50:29 51°20.876 3°3.243 -999 26 13.1 102060 39
2011-05-17 07:50:34 51°20.884 3°3.265 -999 37 13.1 102060 39
2011-05-17 07:50:39 51°20.891 3°3.287 -999 25 13 102060 39
2011-05-17 07:50:45 51°20.9 3°3.314 -999 35 13 102060 39
2011-05-17 07:50:49 51°20.905 3°3.332 -999 24 13 102060 39
2011-05-17 07:50:55 51°20.913 3°3.359 -999 35 13 102060 39
2011-05-17 07:51:00 51°20.919 3°3.383 -999 23 13 102060 39
2011-05-17 07:51:05 51°20.925 3°3.406 -999 35 13 102060 39
2011-05-17 07:51:09 51°20.93 3°3.424 -999 24 13 102060 39
2011-05-17 07:51:14 51°20.936 3°3.447 -999 35 13 102060 39
2011-05-17 07:51:20 51°20.944 3°3.475 -999 24 13 102060 39
2011-05-17 07:51:25 51°20.949 3°3.498 -999 35 13 102060 39
2011-05-17 07:51:29 51°20.954 3°3.516 -999 24 13 102060 39
2011-05-17 07:51:33 51°20.958 3°3.535 -999 35 13 102060 39
2011-05-17 07:51:39 51°20.966 3°3.562 -999 270 13 102060 39
2011-05-17 07:51:45 51°20.972 3°3.59 -999 35 13 102060 39
2011-05-17 07:51:49 51°20.978 3°3.608 -999 24 13 102060 39
2011-05-17 07:51:55 51°20.986 3°3.635 -999 35 13 102060 39
2011-05-17 07:51:59 51°20.991 3°3.653 -999 24 12.9 102060 39
2011-05-17 07:52:05 51°20.998 3°3.68 -999 266 12.9 102060 39
2011-05-17 07:52:09 51°21.004 3°3.698 -999 265 12.9 102060 39
2011-05-17 07:52:14 51°21.01 3°3.72 -999 37 12.9 102060 39
2011-05-17 07:52:19 51°21.016 3°3.742 -999 25 12.9 102060 39
2011-05-17 07:52:24 51°21.023 3°3.765 -999 35 12.9 102060 39
2011-05-17 07:52:29 51°21.029 3°3.788 -999 24 12.9 102060 39
2011-05-17 07:52:34 51°21.036 3°3.81 -999 35 12.9 102060 39
2011-05-17 07:52:40 51°21.044 3°3.836 -999 23 13 102060 39
2011-05-17 07:52:45 51°21.051 3°3.858 -999 35 13 102060 39
2011-05-17 07:52:49 51°21.057 3°3.875 -999 23 13 102060 39
2011-05-17 07:52:54 51°21.063 3°3.898 -999 36 13 102060 39
2011-05-17 07:52:59 51°21.07 3°3.92 -999 24 13 102050 38
2011-05-17 07:53:05 51°21.078 3°3.947 -999 35 13 102050 38
2011-05-17 07:53:09 51°21.083 3°3.965 -999 23 13 102050 39
2011-05-17 07:53:14 51°21.088 3°3.988 -999 35 13 102050 39
2011-05-17 07:53:20 51°21.096 3°4.015 -999 24 13.1 102060 39
2011-05-17 07:53:25 51°21.102 3°4.038 -999 35 13.1 102060 39
2011-05-17 07:53:29 51°21.107 3°4.056 -999 24 13.1 102050 40
2011-05-17 07:53:33 51°21.113 3°4.074 -999 37 13.1 102050 40
2011-05-17 07:53:40 51°21.122 3°4.106 -999 44 13.1 102060 39
2011-05-17 07:53:45 51°21.128 3°4.129 -999 35 13.1 102060 39
2011-05-17 07:53:49 51°21.133 3°4.148 -999 24 13.1 102060 39
2011-05-17 07:53:54 51°21.139 3°4.171 -999 35 13.1 102060 39
2011-05-17 07:53:59 51°21.146 3°4.193 -999 24 13.1 102050 39
2011-05-17 07:54:05 51°21.153 3°4.221 -999 35 13.1 102050 39
2011-05-17 07:54:09 51°21.159 3°4.239 -999 24 13.1 102060 39
2011-05-17 07:54:13 51°21.164 3°4.258 -999 42 13.1 102060 39
2011-05-17 07:54:19 51°21.171 3°4.286 -999 24 13.2 102060 39
2011-05-17 07:54:24 51°21.177 3°4.31 -999 43 13.2 102060 39
2011-05-17 07:54:29 51°21.182 3°4.333 -999 24 13.2 102050 39